sensor_id;sensor_type;location;lat;lon;timestamp;temperature;humidity
10249;DHT22;5169;50.560;9.714;2023-05-07T00:00:42;15.80;99.90
10249;DHT22;5169;50.560;9.714;2023-05-07T00:03:08;15.70;99.90
10249;DHT22;5169;50.560;9.714;2023-05-07T00:05:33;15.70;99.90
10249;DHT22;5169;50.560;9.714;2023-05-07T00:08:01;15.70;99.90
10249;DHT22;5169;50.560;9.714;2023-05-07T00:10:27;15.60;99.90
10249;DHT22;5169;50.560;9.714;2023-05-07T00:12:52;15.50;99.90
10249;DHT22;5169;50.560;9.714;2023-05-07T00:15:18;15.50;99.90
10249;DHT22;5169;50.560;9.714;2023-05-07T00:17:45;15.50;99.90
10249;DHT22;5169;50.560;9.714;2023-05-07T00:20:11;15.40;99.90
10249;DHT22;5169;50.560;9.714;2023-05-07T00:22:39;15.30;99.90
10249;DHT22;5169;50.560;9.714;2023-05-07T00:25:07;15.20;99.90
10249;DHT22;5169;50.560;9.714;2023-05-07T00:27:35;15.00;99.90
10249;DHT22;5169;50.560;9.714;2023-05-07T00:30:01;14.90;99.90
10249;DHT22;5169;50.560;9.714;2023-05-07T00:32:27;14.90;99.90
10249;DHT22;5169;50.560;9.714;2023-05-07T00:34:52;14.80;99.90
10249;DHT22;5169;50.560;9.714;2023-05-07T00:37:18;14.80;99.90
10249;DHT22;5169;50.560;9.714;2023-05-07T00:39:43;14.80;99.90
10249;DHT22;5169;50.560;9.714;2023-05-07T00:42:09;14.80;99.90
10249;DHT22;5169;50.560;9.714;2023-05-07T00:44:35;14.70;99.90
10249;DHT22;5169;50.560;9.714;2023-05-07T00:47:04;14.70;99.90
10249;DHT22;5169;50.560;9.714;2023-05-07T00:49:38;14.80;99.90
10249;DHT22;5169;50.560;9.714;2023-05-07T00:52:06;14.70;99.90
10249;DHT22;5169;50.560;9.714;2023-05-07T00:54:32;14.70;99.90
10249;DHT22;5169;50.560;9.714;2023-05-07T00:56:59;14.60;99.90
10249;DHT22;5169;50.560;9.714;2023-05-07T00:59:24;14.60;99.90
10249;DHT22;5169;50.560;9.714;2023-05-07T01:01:52;14.60;99.90
10249;DHT22;5169;50.560;9.714;2023-05-07T01:04:20;14.60;99.90
10249;DHT22;5169;50.560;9.714;2023-05-07T01:06:45;14.60;99.90
10249;DHT22;5169;50.560;9.714;2023-05-07T01:09:12;14.70;99.90
10249;DHT22;5169;50.560;9.714;2023-05-07T01:11:38;14.70;99.90
10249;DHT22;5169;50.560;9.714;2023-05-07T01:14:09;14.70;99.90
10249;DHT22;5169;50.560;9.714;2023-05-07T01:16:34;14.80;99.90
10249;DHT22;5169;50.560;9.714;2023-05-07T01:19:00;14.70;99.90
10249;DHT22;5169;50.560;9.714;2023-05-07T01:21:26;14.90;99.90
10249;DHT22;5169;50.560;9.714;2023-05-07T01:23:54;14.90;99.90
10249;DHT22;5169;50.560;9.714;2023-05-07T01:26:22;14.90;99.90
10249;DHT22;5169;50.560;9.714;2023-05-07T01:28:49;14.80;99.90
10249;DHT22;5169;50.560;9.714;2023-05-07T01:31:16;14.80;99.90
10249;DHT22;5169;50.560;9.714;2023-05-07T01:33:43;14.70;99.90
10249;DHT22;5169;50.560;9.714;2023-05-07T01:36:13;14.80;99.90
10249;DHT22;5169;50.560;9.714;2023-05-07T01:38:39;15.00;99.90
10249;DHT22;5169;50.560;9.714;2023-05-07T01:41:06;15.00;99.90
10249;DHT22;5169;50.560;9.714;2023-05-07T01:43:32;15.00;99.90
10249;DHT22;5169;50.560;9.714;2023-05-07T01:45:58;15.00;99.90
10249;DHT22;5169;50.560;9.714;2023-05-07T01:48:25;15.00;99.90
10249;DHT22;5169;50.560;9.714;2023-05-07T01:50:51;15.00;99.90
10249;DHT22;5169;50.560;9.714;2023-05-07T01:53:17;14.90;99.90
10249;DHT22;5169;50.560;9.714;2023-05-07T01:55:43;14.70;99.90
10249;DHT22;5169;50.560;9.714;2023-05-07T01:58:10;14.70;99.90
10249;DHT22;5169;50.560;9.714;2023-05-07T02:00:36;14.70;99.90
10249;DHT22;5169;50.560;9.714;2023-05-07T02:03:04;14.60;99.90
10249;DHT22;5169;50.560;9.714;2023-05-07T02:05:34;14.60;99.90
10249;DHT22;5169;50.560;9.714;2023-05-07T02:08:00;14.60;99.90
10249;DHT22;5169;50.560;9.714;2023-05-07T02:10:27;14.50;99.90
10249;DHT22;5169;50.560;9.714;2023-05-07T02:12:53;14.50;99.90
10249;DHT22;5169;50.560;9.714;2023-05-07T02:15:21;14.40;99.90
10249;DHT22;5169;50.560;9.714;2023-05-07T02:18:02;14.40;99.90
10249;DHT22;5169;50.560;9.714;2023-05-07T02:20:28;14.40;99.90
10249;DHT22;5169;50.560;9.714;2023-05-07T02:22:54;14.40;99.90
10249;DHT22;5169;50.560;9.714;2023-05-07T02:25:20;14.50;99.90
10249;DHT22;5169;50.560;9.714;2023-05-07T02:27:45;14.40;99.90
10249;DHT22;5169;50.560;9.714;2023-05-07T02:30:13;14.40;99.90
10249;DHT22;5169;50.560;9.714;2023-05-07T02:32:39;14.50;99.90
10249;DHT22;5169;50.560;9.714;2023-05-07T02:35:05;14.50;99.90
10249;DHT22;5169;50.560;9.714;2023-05-07T02:37:33;14.50;99.90
10249;DHT22;5169;50.560;9.714;2023-05-07T02:39:59;14.40;99.90
10249;DHT22;5169;50.560;9.714;2023-05-07T02:42:24;14.30;99.90
10249;DHT22;5169;50.560;9.714;2023-05-07T02:44:50;14.10;99.90
10249;DHT22;5169;50.560;9.714;2023-05-07T02:47:15;14.20;99.90
10249;DHT22;5169;50.560;9.714;2023-05-07T02:49:41;14.20;99.90
10249;DHT22;5169;50.560;9.714;2023-05-07T02:52:09;14.20;99.90
10249;DHT22;5169;50.560;9.714;2023-05-07T02:54:34;14.10;99.90
10249;DHT22;5169;50.560;9.714;2023-05-07T02:57:00;14.10;99.90
10249;DHT22;5169;50.560;9.714;2023-05-07T02:59:26;14.10;99.90
10249;DHT22;5169;50.560;9.714;2023-05-07T03:01:54;14.00;99.90
10249;DHT22;5169;50.560;9.714;2023-05-07T03:04:20;14.10;99.90
10249;DHT22;5169;50.560;9.714;2023-05-07T03:06:50;14.10;99.90
10249;DHT22;5169;50.560;9.714;2023-05-07T03:09:15;14.00;99.90
10249;DHT22;5169;50.560;9.714;2023-05-07T03:11:41;14.10;99.90
10249;DHT22;5169;50.560;9.714;2023-05-07T03:14:07;14.10;99.90
10249;DHT22;5169;50.560;9.714;2023-05-07T03:16:32;14.00;99.90
10249;DHT22;5169;50.560;9.714;2023-05-07T03:19:00;14.10;99.90
10249;DHT22;5169;50.560;9.714;2023-05-07T03:21:28;14.20;99.90
10249;DHT22;5169;50.560;9.714;2023-05-07T03:23:55;14.30;99.90
10249;DHT22;5169;50.560;9.714;2023-05-07T03:26:25;14.30;99.90
10249;DHT22;5169;50.560;9.714;2023-05-07T03:28:55;14.50;99.90
10249;DHT22;5169;50.560;9.714;2023-05-07T03:31:21;14.50;99.90
10249;DHT22;5169;50.560;9.714;2023-05-07T03:33:53;14.50;99.90
10249;DHT22;5169;50.560;9.714;2023-05-07T03:36:20;14.50;99.90
10249;DHT22;5169;50.560;9.714;2023-05-07T03:38:46;14.50;99.90
10249;DHT22;5169;50.560;9.714;2023-05-07T03:41:12;14.40;99.90
10249;DHT22;5169;50.560;9.714;2023-05-07T03:43:40;14.50;99.90
10249;DHT22;5169;50.560;9.714;2023-05-07T03:46:06;14.40;99.90
10249;DHT22;5169;50.560;9.714;2023-05-07T03:48:31;14.30;99.90
10249;DHT22;5169;50.560;9.714;2023-05-07T03:50:58;14.40;99.90
10249;DHT22;5169;50.560;9.714;2023-05-07T03:53:24;14.20;99.90
10249;DHT22;5169;50.560;9.714;2023-05-07T03:55:49;14.20;99.90
10249;DHT22;5169;50.560;9.714;2023-05-07T03:58:15;14.30;99.90
10249;DHT22;5169;50.560;9.714;2023-05-07T04:00:41;14.20;99.90
10249;DHT22;5169;50.560;9.714;2023-05-07T04:03:07;14.20;99.90
10249;DHT22;5169;50.560;9.714;2023-05-07T04:05:35;14.20;99.90
10249;DHT22;5169;50.560;9.714;2023-05-07T04:08:02;14.30;99.90
10249;DHT22;5169;50.560;9.714;2023-05-07T04:10:29;14.20;99.90
10249;DHT22;5169;50.560;9.714;2023-05-07T04:12:57;14.30;99.90
10249;DHT22;5169;50.560;9.714;2023-05-07T04:15:23;14.20;99.90
10249;DHT22;5169;50.560;9.714;2023-05-07T04:17:49;14.20;99.90
10249;DHT22;5169;50.560;9.714;2023-05-07T04:20:18;14.20;99.90
10249;DHT22;5169;50.560;9.714;2023-05-07T04:22:43;14.20;99.90
10249;DHT22;5169;50.560;9.714;2023-05-07T04:25:09;14.20;99.90
10249;DHT22;5169;50.560;9.714;2023-05-07T04:27:39;14.30;99.90
10249;DHT22;5169;50.560;9.714;2023-05-07T04:30:08;14.40;99.90
10249;DHT22;5169;50.560;9.714;2023-05-07T04:32:36;14.40;99.90
10249;DHT22;5169;50.560;9.714;2023-05-07T04:35:04;14.40;99.90
10249;DHT22;5169;50.560;9.714;2023-05-07T04:37:32;14.30;99.90
10249;DHT22;5169;50.560;9.714;2023-05-07T04:40:00;14.30;99.90
10249;DHT22;5169;50.560;9.714;2023-05-07T04:42:27;14.30;99.90
10249;DHT22;5169;50.560;9.714;2023-05-07T04:44:53;14.30;99.90
10249;DHT22;5169;50.560;9.714;2023-05-07T04:47:19;14.20;99.90
10249;DHT22;5169;50.560;9.714;2023-05-07T04:49:44;14.20;99.90
10249;DHT22;5169;50.560;9.714;2023-05-07T04:52:10;14.30;99.90
10249;DHT22;5169;50.560;9.714;2023-05-07T04:54:35;14.40;99.90
10249;DHT22;5169;50.560;9.714;2023-05-07T04:57:03;14.40;99.90
10249;DHT22;5169;50.560;9.714;2023-05-07T04:59:34;14.50;99.90
10249;DHT22;5169;50.560;9.714;2023-05-07T05:01:59;14.50;99.90
10249;DHT22;5169;50.560;9.714;2023-05-07T05:04:25;14.50;99.90
10249;DHT22;5169;50.560;9.714;2023-05-07T05:06:53;14.50;99.90
10249;DHT22;5169;50.560;9.714;2023-05-07T05:09:18;14.50;99.90
10249;DHT22;5169;50.560;9.714;2023-05-07T05:11:44;14.30;99.90
10249;DHT22;5169;50.560;9.714;2023-05-07T05:14:10;14.30;99.90
10249;DHT22;5169;50.560;9.714;2023-05-07T05:16:35;14.30;99.90
10249;DHT22;5169;50.560;9.714;2023-05-07T05:19:07;14.30;99.90
10249;DHT22;5169;50.560;9.714;2023-05-07T05:21:33;14.30;99.90
10249;DHT22;5169;50.560;9.714;2023-05-07T05:23:58;14.40;99.90
10249;DHT22;5169;50.560;9.714;2023-05-07T05:26:26;14.40;99.90
10249;DHT22;5169;50.560;9.714;2023-05-07T05:28:58;14.30;99.90
10249;DHT22;5169;50.560;9.714;2023-05-07T05:31:24;14.40;99.90
10249;DHT22;5169;50.560;9.714;2023-05-07T05:33:49;14.40;99.90
10249;DHT22;5169;50.560;9.714;2023-05-07T05:36:22;14.30;99.90
10249;DHT22;5169;50.560;9.714;2023-05-07T05:38:48;14.30;99.90
10249;DHT22;5169;50.560;9.714;2023-05-07T05:41:13;14.40;99.90
10249;DHT22;5169;50.560;9.714;2023-05-07T05:43:39;14.50;99.90
10249;DHT22;5169;50.560;9.714;2023-05-07T05:46:11;14.50;99.90
10249;DHT22;5169;50.560;9.714;2023-05-07T05:48:37;14.50;99.90
10249;DHT22;5169;50.560;9.714;2023-05-07T05:51:03;14.50;99.90
10249;DHT22;5169;50.560;9.714;2023-05-07T05:53:34;14.40;99.90
10249;DHT22;5169;50.560;9.714;2023-05-07T05:56:00;14.40;99.90
10249;DHT22;5169;50.560;9.714;2023-05-07T05:58:26;14.50;99.90
10249;DHT22;5169;50.560;9.714;2023-05-07T06:00:52;14.50;99.90
10249;DHT22;5169;50.560;9.714;2023-05-07T06:03:23;14.50;99.90
10249;DHT22;5169;50.560;9.714;2023-05-07T06:05:49;14.60;99.90
10249;DHT22;5169;50.560;9.714;2023-05-07T06:08:28;14.60;99.90
10249;DHT22;5169;50.560;9.714;2023-05-07T06:11:01;14.60;99.90
10249;DHT22;5169;50.560;9.714;2023-05-07T06:13:38;14.70;99.90
10249;DHT22;5169;50.560;9.714;2023-05-07T06:16:11;14.60;99.90
10249;DHT22;5169;50.560;9.714;2023-05-07T06:18:47;14.60;99.90
10249;DHT22;5169;50.560;9.714;2023-05-07T06:21:13;14.50;99.90
10249;DHT22;5169;50.560;9.714;2023-05-07T06:23:39;14.50;99.90
10249;DHT22;5169;50.560;9.714;2023-05-07T06:26:09;14.50;99.90
10249;DHT22;5169;50.560;9.714;2023-05-07T06:28:34;14.60;99.90
10249;DHT22;5169;50.560;9.714;2023-05-07T06:31:22;14.70;99.90
10249;DHT22;5169;50.560;9.714;2023-05-07T06:33:48;14.70;99.90
10249;DHT22;5169;50.560;9.714;2023-05-07T06:36:14;14.70;99.90
10249;DHT22;5169;50.560;9.714;2023-05-07T06:38:40;14.70;99.90
10249;DHT22;5169;50.560;9.714;2023-05-07T06:41:14;14.70;99.90
10249;DHT22;5169;50.560;9.714;2023-05-07T06:43:49;14.80;99.90
10249;DHT22;5169;50.560;9.714;2023-05-07T06:46:22;14.80;99.90
10249;DHT22;5169;50.560;9.714;2023-05-07T06:48:48;14.80;99.90
10249;DHT22;5169;50.560;9.714;2023-05-07T06:51:13;14.90;99.90
10249;DHT22;5169;50.560;9.714;2023-05-07T06:53:41;14.90;99.90
10249;DHT22;5169;50.560;9.714;2023-05-07T06:56:09;15.00;99.90
10249;DHT22;5169;50.560;9.714;2023-05-07T06:58:37;15.00;99.90
10249;DHT22;5169;50.560;9.714;2023-05-07T07:01:05;15.00;99.90
10249;DHT22;5169;50.560;9.714;2023-05-07T07:03:34;15.00;99.90
10249;DHT22;5169;50.560;9.714;2023-05-07T07:06:02;15.10;99.90
10249;DHT22;5169;50.560;9.714;2023-05-07T07:08:28;15.10;99.90
10249;DHT22;5169;50.560;9.714;2023-05-07T07:10:54;15.20;99.90
10249;DHT22;5169;50.560;9.714;2023-05-07T07:13:22;15.30;99.90
10249;DHT22;5169;50.560;9.714;2023-05-07T07:15:48;15.50;99.90
10249;DHT22;5169;50.560;9.714;2023-05-07T07:18:13;15.60;99.90
10249;DHT22;5169;50.560;9.714;2023-05-07T07:20:41;15.60;99.90
10249;DHT22;5169;50.560;9.714;2023-05-07T07:23:13;15.70;99.90
10249;DHT22;5169;50.560;9.714;2023-05-07T07:25:39;15.90;99.90
10249;DHT22;5169;50.560;9.714;2023-05-07T07:28:12;16.00;99.90
10249;DHT22;5169;50.560;9.714;2023-05-07T07:30:41;16.00;99.90
10249;DHT22;5169;50.560;9.714;2023-05-07T07:33:06;16.20;99.90
10249;DHT22;5169;50.560;9.714;2023-05-07T07:35:38;16.20;99.90
10249;DHT22;5169;50.560;9.714;2023-05-07T07:38:05;16.30;99.90
10249;DHT22;5169;50.560;9.714;2023-05-07T07:40:36;16.50;99.90
10249;DHT22;5169;50.560;9.714;2023-05-07T07:43:04;16.50;99.90
10249;DHT22;5169;50.560;9.714;2023-05-07T07:45:30;16.60;99.90
10249;DHT22;5169;50.560;9.714;2023-05-07T07:47:59;16.80;99.90
10249;DHT22;5169;50.560;9.714;2023-05-07T07:50:27;17.00;99.90
10249;DHT22;5169;50.560;9.714;2023-05-07T07:52:52;17.20;99.90
10249;DHT22;5169;50.560;9.714;2023-05-07T07:55:25;17.30;99.90
10249;DHT22;5169;50.560;9.714;2023-05-07T07:57:52;17.40;99.90
10249;DHT22;5169;50.560;9.714;2023-05-07T08:00:18;17.50;99.90
10249;DHT22;5169;50.560;9.714;2023-05-07T08:02:49;17.60;99.90
10249;DHT22;5169;50.560;9.714;2023-05-07T08:05:17;17.60;99.90
10249;DHT22;5169;50.560;9.714;2023-05-07T08:07:43;17.60;99.90
10249;DHT22;5169;50.560;9.714;2023-05-07T08:10:11;17.70;99.90
10249;DHT22;5169;50.560;9.714;2023-05-07T08:12:37;17.90;99.90
10249;DHT22;5169;50.560;9.714;2023-05-07T08:15:03;18.00;99.90
10249;DHT22;5169;50.560;9.714;2023-05-07T08:17:28;18.10;99.90
10249;DHT22;5169;50.560;9.714;2023-05-07T08:19:54;18.20;99.90
10249;DHT22;5169;50.560;9.714;2023-05-07T08:22:20;18.30;99.90
10249;DHT22;5169;50.560;9.714;2023-05-07T08:24:51;18.50;99.90
10249;DHT22;5169;50.560;9.714;2023-05-07T08:27:18;18.70;99.90
10249;DHT22;5169;50.560;9.714;2023-05-07T08:29:50;18.80;99.90
10249;DHT22;5169;50.560;9.714;2023-05-07T08:32:15;18.90;99.90
10249;DHT22;5169;50.560;9.714;2023-05-07T08:34:41;19.00;99.90
10249;DHT22;5169;50.560;9.714;2023-05-07T08:37:06;19.10;99.90
10249;DHT22;5169;50.560;9.714;2023-05-07T08:39:40;19.10;99.90
10249;DHT22;5169;50.560;9.714;2023-05-07T08:42:07;19.00;99.90
10249;DHT22;5169;50.560;9.714;2023-05-07T08:44:38;19.00;99.90
10249;DHT22;5169;50.560;9.714;2023-05-07T08:47:06;19.10;99.90
10249;DHT22;5169;50.560;9.714;2023-05-07T08:49:36;19.30;99.90
10249;DHT22;5169;50.560;9.714;2023-05-07T08:52:02;19.40;99.90
10249;DHT22;5169;50.560;9.714;2023-05-07T08:54:28;19.80;99.90
10249;DHT22;5169;50.560;9.714;2023-05-07T08:56:54;20.10;99.90
10249;DHT22;5169;50.560;9.714;2023-05-07T08:59:29;20.20;99.90
10249;DHT22;5169;50.560;9.714;2023-05-07T09:01:55;20.40;99.90
10249;DHT22;5169;50.560;9.714;2023-05-07T09:04:24;20.70;99.90
10249;DHT22;5169;50.560;9.714;2023-05-07T09:06:49;21.10;99.90
10249;DHT22;5169;50.560;9.714;2023-05-07T09:09:17;21.20;99.90
10249;DHT22;5169;50.560;9.714;2023-05-07T09:11:55;21.30;99.90
10249;DHT22;5169;50.560;9.714;2023-05-07T09:14:25;21.30;99.90
10249;DHT22;5169;50.560;9.714;2023-05-07T09:16:53;21.40;99.90
10249;DHT22;5169;50.560;9.714;2023-05-07T09:19:28;21.20;99.90
10249;DHT22;5169;50.560;9.714;2023-05-07T09:22:03;21.20;99.90
10249;DHT22;5169;50.560;9.714;2023-05-07T09:24:30;21.30;99.90
10249;DHT22;5169;50.560;9.714;2023-05-07T09:27:02;21.30;99.90
10249;DHT22;5169;50.560;9.714;2023-05-07T09:29:30;21.30;99.90
10249;DHT22;5169;50.560;9.714;2023-05-07T09:32:26;21.40;99.90
10249;DHT22;5169;50.560;9.714;2023-05-07T09:34:55;21.30;99.90
10249;DHT22;5169;50.560;9.714;2023-05-07T09:37:30;20.90;99.90
10249;DHT22;5169;50.560;9.714;2023-05-07T09:39:59;20.80;99.90
10249;DHT22;5169;50.560;9.714;2023-05-07T09:42:31;20.90;99.90
10249;DHT22;5169;50.560;9.714;2023-05-07T09:45:05;21.10;99.90
10249;DHT22;5169;50.560;9.714;2023-05-07T09:47:35;21.00;99.90
10249;DHT22;5169;50.560;9.714;2023-05-07T09:50:05;21.00;99.90
10249;DHT22;5169;50.560;9.714;2023-05-07T09:52:40;21.20;99.90
10249;DHT22;5169;50.560;9.714;2023-05-07T09:55:12;21.20;99.90
10249;DHT22;5169;50.560;9.714;2023-05-07T09:57:38;21.10;99.90
10249;DHT22;5169;50.560;9.714;2023-05-07T10:00:06;21.30;99.90
10249;DHT22;5169;50.560;9.714;2023-05-07T10:02:39;21.50;99.90
10249;DHT22;5169;50.560;9.714;2023-05-07T10:05:13;21.70;99.90
10249;DHT22;5169;50.560;9.714;2023-05-07T10:07:39;21.70;99.90
10249;DHT22;5169;50.560;9.714;2023-05-07T10:10:06;21.50;99.90
10249;DHT22;5169;50.560;9.714;2023-05-07T10:12:40;21.70;99.90
10249;DHT22;5169;50.560;9.714;2023-05-07T10:15:07;21.50;99.90
10249;DHT22;5169;50.560;9.714;2023-05-07T10:17:40;21.70;99.90
10249;DHT22;5169;50.560;9.714;2023-05-07T10:20:06;22.10;99.90
10249;DHT22;5169;50.560;9.714;2023-05-07T10:22:44;22.90;99.90
10249;DHT22;5169;50.560;9.714;2023-05-07T10:25:28;24.00;99.00
10249;DHT22;5169;50.560;9.714;2023-05-07T10:28:07;24.50;97.60
10249;DHT22;5169;50.560;9.714;2023-05-07T10:33:36;24.70;96.30
10249;DHT22;5169;50.560;9.714;2023-05-07T10:36:03;25.50;96.50
10249;DHT22;5169;50.560;9.714;2023-05-07T10:38:30;26.20;96.00
10249;DHT22;5169;50.560;9.714;2023-05-07T10:41:02;27.00;93.40
10249;DHT22;5169;50.560;9.714;2023-05-07T10:43:43;27.10;92.70
10249;DHT22;5169;50.560;9.714;2023-05-07T10:46:19;27.00;91.90
10249;DHT22;5169;50.560;9.714;2023-05-07T10:51:31;27.20;92.00
10249;DHT22;5169;50.560;9.714;2023-05-07T10:56:39;27.70;90.50
10249;DHT22;5169;50.560;9.714;2023-05-07T11:02:03;27.90;90.30
10249;DHT22;5169;50.560;9.714;2023-05-07T11:04:40;27.30;89.70
10249;DHT22;5169;50.560;9.714;2023-05-07T11:15:13;28.00;88.10
10249;DHT22;5169;50.560;9.714;2023-05-07T11:17:58;27.70;88.80
10249;DHT22;5169;50.560;9.714;2023-05-07T11:20:52;28.30;86.30
10249;DHT22;5169;50.560;9.714;2023-05-07T11:26:10;28.60;86.90
10249;DHT22;5169;50.560;9.714;2023-05-07T11:28:41;28.60;85.00
10249;DHT22;5169;50.560;9.714;2023-05-07T11:31:07;28.50;85.50
10249;DHT22;5169;50.560;9.714;2023-05-07T11:33:37;29.30;84.50
10249;DHT22;5169;50.560;9.714;2023-05-07T11:36:04;30.20;80.80
10249;DHT22;5169;50.560;9.714;2023-05-07T11:38:30;30.30;79.30
10249;DHT22;5169;50.560;9.714;2023-05-07T11:40:59;30.20;80.10
10249;DHT22;5169;50.560;9.714;2023-05-07T11:43:33;30.90;80.00
10249;DHT22;5169;50.560;9.714;2023-05-07T11:46:16;32.30;76.10
10249;DHT22;5169;50.560;9.714;2023-05-07T11:48:43;33.40;69.50
10249;DHT22;5169;50.560;9.714;2023-05-07T11:51:08;33.00;68.00
10249;DHT22;5169;50.560;9.714;2023-05-07T11:53:40;33.00;69.30
10249;DHT22;5169;50.560;9.714;2023-05-07T11:56:10;33.90;64.30
10249;DHT22;5169;50.560;9.714;2023-05-07T11:58:42;34.50;62.00
10249;DHT22;5169;50.560;9.714;2023-05-07T12:01:14;33.80;63.20
10249;DHT22;5169;50.560;9.714;2023-05-07T12:03:43;33.60;63.20
10249;DHT22;5169;50.560;9.714;2023-05-07T12:06:10;33.10;63.70
10249;DHT22;5169;50.560;9.714;2023-05-07T12:08:41;31.70;66.80
10249;DHT22;5169;50.560;9.714;2023-05-07T12:11:29;30.70;68.80
10249;DHT22;5169;50.560;9.714;2023-05-07T12:13:54;30.40;70.10
10249;DHT22;5169;50.560;9.714;2023-05-07T12:16:21;30.50;70.80
10249;DHT22;5169;50.560;9.714;2023-05-07T12:18:47;31.00;70.00
10249;DHT22;5169;50.560;9.714;2023-05-07T12:21:21;30.70;67.90
10249;DHT22;5169;50.560;9.714;2023-05-07T12:23:50;30.20;70.30
10249;DHT22;5169;50.560;9.714;2023-05-07T12:26:16;29.60;72.90
10249;DHT22;5169;50.560;9.714;2023-05-07T12:28:42;29.20;74.00
10249;DHT22;5169;50.560;9.714;2023-05-07T12:31:10;28.70;75.30
10249;DHT22;5169;50.560;9.714;2023-05-07T12:33:39;28.30;75.80
10249;DHT22;5169;50.560;9.714;2023-05-07T12:36:07;27.80;75.00
10249;DHT22;5169;50.560;9.714;2023-05-07T12:38:40;27.50;79.80
10249;DHT22;5169;50.560;9.714;2023-05-07T12:41:08;27.50;80.00
10249;DHT22;5169;50.560;9.714;2023-05-07T12:43:34;27.40;78.30
10249;DHT22;5169;50.560;9.714;2023-05-07T12:46:01;27.20;78.70
10249;DHT22;5169;50.560;9.714;2023-05-07T12:48:30;26.90;81.50
10249;DHT22;5169;50.560;9.714;2023-05-07T12:51:00;26.60;81.30
10249;DHT22;5169;50.560;9.714;2023-05-07T12:53:27;26.20;82.70
10249;DHT22;5169;50.560;9.714;2023-05-07T12:55:57;26.00;83.60
10249;DHT22;5169;50.560;9.714;2023-05-07T12:58:31;26.00;85.40
10249;DHT22;5169;50.560;9.714;2023-05-07T13:00:59;25.80;84.30
10249;DHT22;5169;50.560;9.714;2023-05-07T13:03:35;25.50;85.70
10249;DHT22;5169;50.560;9.714;2023-05-07T13:06:09;25.40;84.40
10249;DHT22;5169;50.560;9.714;2023-05-07T13:08:42;25.30;84.80
10249;DHT22;5169;50.560;9.714;2023-05-07T13:11:09;25.10;86.40
10249;DHT22;5169;50.560;9.714;2023-05-07T13:13:39;24.80;87.40
10249;DHT22;5169;50.560;9.714;2023-05-07T13:16:07;24.70;90.10
10249;DHT22;5169;50.560;9.714;2023-05-07T13:18:33;24.80;89.40
10249;DHT22;5169;50.560;9.714;2023-05-07T13:21:00;24.50;87.70
10249;DHT22;5169;50.560;9.714;2023-05-07T13:23:26;24.30;90.00
10249;DHT22;5169;50.560;9.714;2023-05-07T13:25:56;24.30;89.40
10249;DHT22;5169;50.560;9.714;2023-05-07T13:28:27;24.10;90.00
10249;DHT22;5169;50.560;9.714;2023-05-07T13:30:53;24.10;90.70
10249;DHT22;5169;50.560;9.714;2023-05-07T13:33:26;24.20;90.10
10249;DHT22;5169;50.560;9.714;2023-05-07T13:35:51;24.00;90.10
10249;DHT22;5169;50.560;9.714;2023-05-07T13:38:17;24.10;90.50
10249;DHT22;5169;50.560;9.714;2023-05-07T13:40:43;24.30;90.60
10249;DHT22;5169;50.560;9.714;2023-05-07T13:43:17;24.40;90.90
10249;DHT22;5169;50.560;9.714;2023-05-07T13:45:50;24.50;90.60
10249;DHT22;5169;50.560;9.714;2023-05-07T13:48:15;24.50;90.20
10249;DHT22;5169;50.560;9.714;2023-05-07T13:50:45;24.60;90.10
10249;DHT22;5169;50.560;9.714;2023-05-07T13:53:11;24.50;90.40
10249;DHT22;5169;50.560;9.714;2023-05-07T13:55:39;24.50;90.10
10249;DHT22;5169;50.560;9.714;2023-05-07T13:58:05;24.30;90.20
10249;DHT22;5169;50.560;9.714;2023-05-07T14:00:31;24.20;91.10
10249;DHT22;5169;50.560;9.714;2023-05-07T14:02:56;24.00;90.40
10249;DHT22;5169;50.560;9.714;2023-05-07T14:05:27;23.80;91.50
10249;DHT22;5169;50.560;9.714;2023-05-07T14:07:54;23.60;90.70
10249;DHT22;5169;50.560;9.714;2023-05-07T14:10:20;23.50;91.60
10249;DHT22;5169;50.560;9.714;2023-05-07T14:12:48;23.50;91.60
10249;DHT22;5169;50.560;9.714;2023-05-07T14:15:14;23.70;91.50
10249;DHT22;5169;50.560;9.714;2023-05-07T14:17:40;23.70;92.00
10249;DHT22;5169;50.560;9.714;2023-05-07T14:20:06;23.70;91.60
10249;DHT22;5169;50.560;9.714;2023-05-07T14:22:35;23.60;92.30
10249;DHT22;5169;50.560;9.714;2023-05-07T14:25:01;23.70;91.80
10249;DHT22;5169;50.560;9.714;2023-05-07T14:27:29;23.70;91.90
10249;DHT22;5169;50.560;9.714;2023-05-07T14:29:54;23.60;91.70
10249;DHT22;5169;50.560;9.714;2023-05-07T14:32:24;23.70;92.30
10249;DHT22;5169;50.560;9.714;2023-05-07T14:34:50;23.80;91.30
10249;DHT22;5169;50.560;9.714;2023-05-07T14:37:15;23.80;91.80
10249;DHT22;5169;50.560;9.714;2023-05-07T14:39:41;23.90;92.20
10249;DHT22;5169;50.560;9.714;2023-05-07T14:42:11;23.90;91.60
10249;DHT22;5169;50.560;9.714;2023-05-07T14:44:37;23.90;92.10
10249;DHT22;5169;50.560;9.714;2023-05-07T14:47:13;24.00;91.50
10249;DHT22;5169;50.560;9.714;2023-05-07T14:49:39;24.00;91.60
10249;DHT22;5169;50.560;9.714;2023-05-07T14:52:07;24.00;91.20
10249;DHT22;5169;50.560;9.714;2023-05-07T14:54:39;23.80;91.30
10249;DHT22;5169;50.560;9.714;2023-05-07T14:57:06;23.50;91.80
10249;DHT22;5169;50.560;9.714;2023-05-07T14:59:35;23.30;91.80
10249;DHT22;5169;50.560;9.714;2023-05-07T15:02:02;23.10;92.20
10249;DHT22;5169;50.560;9.714;2023-05-07T15:04:30;23.00;92.40
10249;DHT22;5169;50.560;9.714;2023-05-07T15:06:56;22.90;93.50
10249;DHT22;5169;50.560;9.714;2023-05-07T15:09:25;22.90;92.60
10249;DHT22;5169;50.560;9.714;2023-05-07T15:11:58;22.90;92.20
10249;DHT22;5169;50.560;9.714;2023-05-07T15:14:26;23.00;92.70
10249;DHT22;5169;50.560;9.714;2023-05-07T15:16:51;22.80;92.80
10249;DHT22;5169;50.560;9.714;2023-05-07T15:19:20;22.80;93.20
10249;DHT22;5169;50.560;9.714;2023-05-07T15:21:47;22.60;92.80
10249;DHT22;5169;50.560;9.714;2023-05-07T15:24:13;22.40;93.50
10249;DHT22;5169;50.560;9.714;2023-05-07T15:26:46;22.40;93.50
10249;DHT22;5169;50.560;9.714;2023-05-07T15:29:12;22.20;92.80
10249;DHT22;5169;50.560;9.714;2023-05-07T15:31:38;22.00;94.00
10249;DHT22;5169;50.560;9.714;2023-05-07T15:34:04;21.90;93.70
10249;DHT22;5169;50.560;9.714;2023-05-07T15:36:34;21.70;94.50
10249;DHT22;5169;50.560;9.714;2023-05-07T15:39:00;21.60;94.70
10249;DHT22;5169;50.560;9.714;2023-05-07T15:41:32;21.40;94.70
10249;DHT22;5169;50.560;9.714;2023-05-07T15:43:57;21.40;94.80
10249;DHT22;5169;50.560;9.714;2023-05-07T15:46:24;21.40;94.40
10249;DHT22;5169;50.560;9.714;2023-05-07T15:48:50;21.30;94.60
10249;DHT22;5169;50.560;9.714;2023-05-07T15:51:23;21.30;94.60
10249;DHT22;5169;50.560;9.714;2023-05-07T15:53:49;21.20;94.60
10249;DHT22;5169;50.560;9.714;2023-05-07T15:56:16;21.10;94.70
10249;DHT22;5169;50.560;9.714;2023-05-07T15:58:45;21.00;94.90
10249;DHT22;5169;50.560;9.714;2023-05-07T16:01:10;20.90;95.70
10249;DHT22;5169;50.560;9.714;2023-05-07T16:03:36;20.80;96.20
10249;DHT22;5169;50.560;9.714;2023-05-07T16:06:11;20.90;95.90
10249;DHT22;5169;50.560;9.714;2023-05-07T16:08:37;20.90;96.30
10249;DHT22;5169;50.560;9.714;2023-05-07T16:11:09;20.80;95.60
10249;DHT22;5169;50.560;9.714;2023-05-07T16:13:35;20.70;95.60